Time;durP1;ratioP1;P1;durP2;ratioP2;P2;SDS_P1;SDS_P2;PMS_P1;PMS_P2;Temp;Humidity;BMP_temperature;BMP_pressure;BME280_temperature;BME280_humidity;BME280_pressure;Samples;Min_cycle;Max_cycle;Signal;HPM_P1;HPM_P2
2022/05/15 00:01:11;;;;;;;4.90;3.27;;;;;;;20.36;44.32;99456.47;4140492;28;20241;-71
2022/05/15 00:03:18;;;;;;;9.83;3.10;;;;;;;19.97;44.73;99464.84;4136686;28;20248;-71
2022/05/15 00:05:20;;;;;;;5.23;3.20;;;;;;;21.04;43.37;99448.94;4139470;28;20264;-71
2022/05/15 00:07:22;;;;;;;6.17;3.10;;;;;;;20.36;43.94;99459.97;4139245;28;20241;-72
2022/05/15 00:09:24;;;;;;;5.70;3.20;;;;;;;20.30;44.14;99449.28;4138358;28;20794;-72
2022/05/15 00:11:26;;;;;;;6.00;3.30;;;;;;;20.81;43.12;99440.56;4143673;28;20233;-71
2022/05/15 00:13:29;;;;;;;6.87;2.93;;;;;;;20.29;44.17;99451.16;4141802;28;20280;-71
2022/05/15 00:15:31;;;;;;;6.60;3.50;;;;;;;20.57;43.84;99437.00;4145305;28;20287;-71
2022/05/15 00:17:32;;;;;;;4.20;3.10;;;;;;;20.70;43.26;99451.34;4140736;28;20232;-71
2022/05/15 00:19:35;;;;;;;4.47;3.50;;;;;;;20.43;43.86;99449.91;4141941;28;20618;-72
2022/05/15 00:21:37;;;;;;;7.30;3.20;;;;;;;20.59;43.45;99431.38;4142631;28;20773;-71
2022/05/15 00:23:38;;;;;;;8.67;3.40;;;;;;;20.47;43.75;99454.84;4141644;28;20283;-72
2022/05/15 00:25:41;;;;;;;4.87;3.73;;;;;;;20.28;44.02;99444.13;4144921;28;20780;-71
2022/05/15 00:27:42;;;;;;;6.73;3.10;;;;;;;20.35;44.07;99439.44;4139795;28;20290;-71
2022/05/15 00:29:44;;;;;;;6.83;3.40;;;;;;;20.18;43.94;99441.94;4137959;28;20237;-72
2022/05/15 00:31:46;;;;;;;5.83;3.10;;;;;;;20.34;44.15;99435.09;4140658;28;20649;-71
2022/05/15 00:33:47;;;;;;;6.97;3.30;;;;;;;20.59;43.52;99434.91;4140074;28;20291;-71
2022/05/15 00:35:49;;;;;;;4.70;3.23;;;;;;;20.22;44.12;99450.41;4138951;28;20323;-71
2022/05/15 00:37:51;;;;;;;6.40;3.70;;;;;;;20.11;44.23;99443.94;4143089;28;20236;-71
2022/05/15 00:39:52;;;;;;;5.40;3.60;;;;;;;19.76;44.98;99447.28;4140763;28;20606;-72
2022/05/15 00:41:54;;;;;;;4.53;3.00;;;;;;;20.18;44.14;99439.25;4137750;28;20276;-71
2022/05/15 00:43:57;;;;;;;6.03;3.73;;;;;;;20.01;44.06;99438.22;4139430;28;20234;-71
2022/05/15 00:45:59;;;;;;;7.30;3.80;;;;;;;19.57;45.20;99432.16;4135070;28;20241;-71
2022/05/15 00:48:00;;;;;;;3.97;3.47;;;;;;;20.01;44.14;99422.03;4139988;28;20237;-72
2022/05/15 00:50:06;;;;;;;5.83;3.33;;;;;;;19.76;44.91;99436.50;4137825;28;20245;-71
2022/05/15 00:52:12;;;;;;;6.10;3.30;;;;;;;20.19;43.75;99416.59;4140190;28;20233;-71
2022/05/15 00:54:30;;;;;;;4.10;3.47;;;;;;;19.66;44.49;99457.78;4134706;28;20974;-71
2022/05/15 00:56:35;;;;;;;4.20;3.30;;;;;;;19.37;45.17;99462.88;4140523;28;20249;-71
2022/05/15 00:58:46;;;;;;;6.77;3.67;;;;;;;19.95;44.67;99404.91;4141522;28;20221;-71
2022/05/15 01:00:48;;;;;;;4.83;3.63;;;;;;;19.66;44.66;99420.03;4140241;28;20244;-71
2022/05/15 01:02:50;;;;;;;7.43;3.83;;;;;;;19.72;44.67;99421.81;4138679;28;20694;-71
2022/05/15 01:04:52;;;;;;;8.20;3.87;;;;;;;19.45;45.18;99427.53;4141962;28;20259;-71
2022/05/15 01:06:54;;;;;;;5.83;3.63;;;;;;;19.95;44.36;99423.78;4141201;28;20287;-71
2022/05/15 01:08:56;;;;;;;8.50;3.73;;;;;;;19.54;44.83;99441.53;4135628;28;20230;-71
2022/05/15 01:11:04;;;;;;;9.70;4.37;;;;;;;19.51;44.97;99429.28;4143439;28;20256;-71
2022/05/15 01:13:06;;;;;;;7.73;4.17;;;;;;;19.42;45.19;99427.13;4137124;28;20713;-71
2022/05/15 01:15:10;;;;;;;7.23;4.20;;;;;;;19.32;45.43;99415.00;4143273;28;20295;-71
2022/05/15 01:17:12;;;;;;;13.63;4.30;;;;;;;19.36;45.35;99412.69;4137515;28;20241;-71
2022/05/15 01:19:14;;;;;;;6.60;3.60;;;;;;;19.17;45.98;99411.88;4143245;28;20232;-71
2022/05/15 01:21:40;;;;;;;4.47;3.50;;;;;;;19.02;45.99;99441.88;4135615;28;20233;-71
2022/05/15 01:23:42;;;;;;;6.77;3.63;;;;;;;19.40;45.04;99421.13;4139554;28;20690;-71
2022/05/15 01:25:44;;;;;;;7.43;4.03;;;;;;;19.34;45.20;99422.88;4136460;28;20332;-71
2022/05/15 01:27:52;;;;;;;6.93;3.83;;;;;;;19.78;44.80;99406.59;4141592;28;20666;-71
2022/05/15 01:29:53;;;;;;;5.13;4.00;;;;;;;19.28;45.25;99415.69;4134490;28;20666;-71
2022/05/15 01:31:56;;;;;;;6.23;3.77;;;;;;;18.95;45.95;99423.06;4143897;28;20278;-71
2022/05/15 01:33:59;;;;;;;5.67;3.53;;;;;;;18.55;46.78;99433.34;4141113;28;20346;-71
2022/05/15 01:36:01;;;;;;;5.43;3.67;;;;;;;18.60;46.33;99436.19;4141873;28;20253;-72
2022/05/15 01:38:04;;;;;;;7.47;3.90;;;;;;;19.35;45.26;99386.75;4141605;28;20710;-71
2022/05/15 01:40:06;;;;;;;5.60;3.37;;;;;;;18.65;46.37;99400.53;4147750;28;20221;-72
2022/05/15 01:42:08;;;;;;;5.53;3.83;;;;;;;18.35;47.13;99420.84;4154464;28;20237;-71
2022/05/15 01:44:10;;;;;;;6.17;3.70;;;;;;;18.34;46.99;99429.97;4146706;28;20260;-71
2022/05/15 01:46:12;;;;;;;5.80;3.90;;;;;;;17.97;47.64;99445.91;4145075;28;20317;-71
2022/05/15 01:48:14;;;;;;;8.57;3.80;;;;;;;18.43;47.16;99392.03;4141725;28;20241;-71
2022/05/15 01:50:17;;;;;;;7.47;4.10;;;;;;;18.66;46.16;99396.78;4136170;28;20930;-71
2022/05/15 01:52:19;;;;;;;6.90;3.53;;;;;;;18.61;46.50;99381.31;4139771;28;20227;-71
2022/05/15 01:54:21;;;;;;;5.10;3.20;;;;;;;18.91;46.18;99386.00;4142090;28;20593;-71
2022/05/15 01:56:22;;;;;;;5.03;3.70;;;;;;;18.97;45.46;99382.44;4140762;28;20291;-71
2022/05/15 01:58:24;;;;;;;4.70;3.80;;;;;;;18.12;46.71;99436.72;4139297;28;20658;-72
2022/05/15 02:00:27;;;;;;;4.63;3.80;;;;;;;17.61;47.88;99423.09;4140559;28;20730;-71
2022/05/15 02:02:30;;;;;;;6.00;3.73;;;;;;;18.09;47.63;99383.34;4132238;28;20237;-71
2022/05/15 02:04:32;;;;;;;5.47;3.47;;;;;;;18.56;46.14;99383.81;4139349;28;20233;-72
2022/05/15 02:06:35;;;;;;;10.23;4.23;;;;;;;18.04;47.18;99392.88;4132195;28;20242;-71
2022/05/15 02:08:37;;;;;;;5.93;3.90;;;;;;;18.04;47.05;99398.25;4143025;28;20713;-71
2022/05/15 02:10:39;;;;;;;8.13;3.83;;;;;;;17.74;47.38;99400.72;4140835;28;20229;-71
2022/05/15 02:12:41;;;;;;;6.80;3.57;;;;;;;18.03;47.11;99380.47;4141015;28;20756;-71
2022/05/15 02:14:43;;;;;;;5.93;3.77;;;;;;;18.30;46.77;99369.53;4144120;28;20669;-71
2022/05/15 02:16:44;;;;;;;5.87;4.07;;;;;;;17.79;47.34;99389.31;4131347;28;20226;-71
2022/05/15 02:18:46;;;;;;;4.97;3.33;;;;;;;17.59;47.86;99384.03;4141854;28;20736;-71
2022/05/15 02:20:48;;;;;;;5.03;3.50;;;;;;;17.47;48.31;99395.44;4139655;28;20673;-71
2022/05/15 02:22:50;;;;;;;6.43;3.80;;;;;;;18.30;46.74;99371.41;4137902;28;20858;-71
2022/05/15 02:24:52;;;;;;;5.37;3.80;;;;;;;18.35;46.43;99345.47;4141027;28;20613;-71
2022/05/15 02:26:54;;;;;;;6.60;3.90;;;;;;;17.91;47.10;99376.81;4140706;28;20300;-71
2022/05/15 02:28:55;;;;;;;5.97;3.70;;;;;;;17.76;47.63;99374.41;4138289;28;20233;-71
2022/05/15 02:30:57;;;;;;;6.63;4.03;;;;;;;18.26;46.47;99389.06;4136782;28;20229;-71
2022/05/15 02:33:05;;;;;;;8.53;3.97;;;;;;;18.42;46.38;99356.19;4138813;28;20979;-71
2022/05/15 02:35:09;;;;;;;7.87;3.93;;;;;;;17.69;47.31;99408.59;4133016;28;20300;-71
2022/05/15 02:37:10;;;;;;;6.63;3.50;;;;;;;17.70;47.17;99375.31;4140150;28;20755;-71
2022/05/15 02:39:12;;;;;;;8.87;4.20;;;;;;;17.32;47.91;99404.81;4137050;28;20699;-72
2022/05/15 02:41:14;;;;;;;10.07;4.30;;;;;;;16.90;48.86;99416.66;4143378;28;20238;-72
2022/05/15 02:43:16;;;;;;;6.57;4.20;;;;;;;17.27;48.05;99370.50;4135052;28;20295;-72
2022/05/15 02:45:17;;;;;;;5.60;3.63;;;;;;;17.37;47.97;99354.78;4136486;28;20268;-72
2022/05/15 02:47:19;;;;;;;6.53;4.23;;;;;;;16.96;48.48;99395.34;4143192;28;20299;-71
2022/05/15 02:51:41;;;;;;;4.80;4.23;;;;;;;16.99;48.73;99378.81;4132121;28;20311;-72
2022/05/15 02:53:45;;;;;;;8.93;4.60;;;;;;;17.73;47.66;99341.75;4134482;28;20304;-72
2022/05/15 02:55:47;;;;;;;10.07;4.10;;;;;;;17.66;47.43;99369.50;4137748;28;20233;-72
2022/05/15 02:57:49;;;;;;;7.73;3.80;;;;;;;17.85;46.84;99396.50;4139059;28;20249;-72
2022/05/15 02:59:51;;;;;;;5.57;4.43;;;;;;;17.99;46.91;99352.34;4135758;28;20241;-72
2022/05/15 03:01:52;;;;;;;5.97;4.43;;;;;;;17.44;47.78;99400.44;4137565;28;20713;-71
2022/05/15 03:03:54;;;;;;;7.87;4.57;;;;;;;18.24;46.56;99351.59;4138162;28;20775;-71
2022/05/15 03:05:56;;;;;;;10.83;4.40;;;;;;;18.73;45.42;99341.81;4140302;28;20733;-71
2022/05/15 03:08:00;;;;;;;5.67;3.90;;;;;;;17.91;46.59;99432.50;4137211;28;20237;-71
2022/05/15 03:10:02;;;;;;;7.50;3.90;;;;;;;18.15;46.67;99377.09;4140881;28;20229;-72
2022/05/15 03:12:05;;;;;;;6.27;4.10;;;;;;;18.01;47.26;99366.41;4139562;28;20240;-72
2022/05/15 03:14:09;;;;;;;7.73;4.50;;;;;;;17.82;47.54;99384.31;4139542;28;20232;-72
2022/05/15 03:16:13;;;;;;;6.50;3.97;;;;;;;17.45;47.75;99426.28;4138849;28;20241;-72
2022/05/15 03:18:15;;;;;;;7.90;3.90;;;;;;;17.94;47.16;99376.41;4135747;28;20745;-72
2022/05/15 03:20:18;;;;;;;8.47;4.37;;;;;;;17.92;47.24;99356.13;4143342;28;20229;-72
2022/05/15 03:22:20;;;;;;;10.17;4.17;;;;;;;16.87;48.66;99457.38;4142070;28;20237;-72
2022/05/15 03:24:22;;;;;;;7.70;4.10;;;;;;;17.08;48.65;99402.56;4138596;28;20229;-72
2022/05/15 03:26:25;;;;;;;8.90;4.87;;;;;;;17.83;47.47;99344.81;4138006;28;20225;-71
2022/05/15 03:28:27;;;;;;;8.23;4.13;;;;;;;17.79;47.29;99373.19;4140951;28;20283;-72
2022/05/15 03:30:29;;;;;;;8.17;4.23;;;;;;;17.61;47.37;99403.47;4136044;28;20229;-73
2022/05/15 03:32:31;;;;;;;6.10;4.20;;;;;;;17.60;47.25;99421.47;4136376;28;20256;-71
2022/05/15 03:34:32;;;;;;;6.00;3.73;;;;;;;17.97;47.48;99351.75;4135375;28;20253;-71
2022/05/15 03:36:36;;;;;;;6.23;3.93;;;;;;;17.62;47.37;99416.69;4143015;28;20283;-71
2022/05/15 03:38:40;;;;;;;6.77;3.80;;;;;;;17.29;47.97;99439.16;4142418;28;20241;-72
2022/05/15 03:40:43;;;;;;;9.03;4.23;;;;;;;17.96;47.23;99355.47;4137364;28;20233;-72
2022/05/15 03:42:44;;;;;;;10.83;4.93;;;;;;;17.64;47.35;99416.47;4140661;28;20234;-72
2022/05/15 03:44:46;;;;;;;6.70;3.77;;;;;;;17.85;47.33;99385.75;4140546;28;20244;-71
2022/05/15 03:46:48;;;;;;;10.00;4.43;;;;;;;17.95;47.31;99367.28;4140368;28;20237;-71
2022/05/15 03:48:50;;;;;;;6.00;4.37;;;;;;;17.81;47.41;99388.03;4143418;28;20238;-72
2022/05/15 03:50:52;;;;;;;9.03;5.03;;;;;;;17.99;47.13;99373.88;4140550;28;20237;-71
2022/05/15 03:52:54;;;;;;;8.83;4.17;;;;;;;18.32;46.21;99377.41;4139388;28;20229;-71
2022/05/15 03:54:55;;;;;;;7.37;3.90;;;;;;;17.10;48.86;99448.03;4140567;28;20706;-71
2022/05/15 03:56:57;;;;;;;6.80;4.60;;;;;;;17.21;48.62;99414.31;4138160;28;20234;-71
2022/05/15 03:58:58;;;;;;;6.80;4.07;;;;;;;17.13;48.86;99379.63;4143456;28;20225;-71
2022/05/15 04:01:01;;;;;;;8.40;4.67;;;;;;;17.34;48.49;99374.00;4144129;28;20650;-71
2022/05/15 04:03:03;;;;;;;7.20;5.13;;;;;;;17.19;49.25;99384.16;4143328;28;20240;-71
2022/05/15 04:05:06;;;;;;;7.27;4.73;;;;;;;16.77;49.72;99407.78;4139661;28;20662;-71
2022/05/15 04:07:08;;;;;;;9.70;4.33;;;;;;;16.41;50.08;99447.41;4140187;28;20741;-71
2022/05/15 04:09:09;;;;;;;8.00;4.17;;;;;;;16.66;49.91;99414.63;4146567;28;20803;-71
2022/05/15 04:11:11;;;;;;;8.90;4.20;;;;;;;16.63;50.11;99390.88;4137781;28;20351;-72
2022/05/15 04:13:13;;;;;;;6.13;4.67;;;;;;;16.47;50.68;99384.03;4142740;28;20291;-71
2022/05/15 04:15:16;;;;;;;10.67;5.03;;;;;;;17.32;49.18;99306.22;4144131;28;20237;-71
2022/05/15 04:17:17;;;;;;;7.97;4.43;;;;;;;16.77;50.23;99380.94;4142091;28;20303;-71
2022/05/15 04:19:19;;;;;;;7.20;4.60;;;;;;;17.10;49.78;99329.84;4139443;28;20894;-72
2022/05/15 04:21:21;;;;;;;5.67;4.00;;;;;;;17.06;49.22;99364.34;4140886;28;20234;-71
2022/05/15 04:23:22;;;;;;;6.77;4.00;;;;;;;17.42;48.75;99341.50;4138905;28;20675;-71
2022/05/15 04:25:24;;;;;;;6.33;4.47;;;;;;;17.28;49.20;99356.88;4139460;28;20273;-71
2022/05/15 04:27:26;;;;;;;7.67;4.20;;;;;;;17.40;49.25;99340.09;4141636;28;20233;-71
2022/05/15 04:29:28;;;;;;;7.57;4.33;;;;;;;17.89;48.15;99346.63;4141274;28;20259;-71
2022/05/15 04:31:29;;;;;;;6.80;4.37;;;;;;;17.30;49.83;99351.28;4139711;28;20749;-72
2022/05/15 04:33:31;;;;;;;5.87;4.43;;;;;;;17.19;49.84;99381.47;4143767;28;20713;-72
2022/05/15 04:35:34;;;;;;;11.40;4.60;;;;;;;17.37;49.30;99356.63;4141020;28;20248;-72
2022/05/15 04:37:36;;;;;;;7.03;5.00;;;;;;;17.46;49.54;99366.09;4143477;28;20242;-71
2022/05/15 04:39:37;;;;;;;9.33;5.10;;;;;;;16.91;50.23;99421.00;4140756;28;20302;-71
2022/05/15 04:41:39;;;;;;;7.70;5.20;;;;;;;17.50;49.58;99342.28;4146679;28;20312;-72
2022/05/15 04:43:41;;;;;;;8.50;4.83;;;;;;;17.28;49.88;99353.38;4141186;28;20356;-72
2022/05/15 04:45:42;;;;;;;9.73;5.07;;;;;;;17.37;49.71;99356.63;4142261;28;20702;-72
2022/05/15 04:47:45;;;;;;;6.50;4.73;;;;;;;16.86;50.64;99426.16;4143107;28;20237;-72
2022/05/15 04:49:49;;;;;;;8.33;4.50;;;;;;;17.99;48.41;99354.22;4143909;28;20328;-71
2022/05/15 04:51:52;;;;;;;5.90;4.43;;;;;;;17.85;48.84;99377.69;4131538;28;20251;-71
2022/05/15 04:53:54;;;;;;;9.67;4.27;;;;;;;17.59;49.23;99389.41;4131917;28;20287;-71
2022/05/15 04:55:57;;;;;;;7.83;4.90;;;;;;;17.38;49.45;99420.06;4142944;28;20237;-72
2022/05/15 04:57:59;;;;;;;11.73;4.37;;;;;;;17.75;48.95;99372.78;4138012;28;20237;-72
2022/05/15 05:00:01;;;;;;;10.47;4.80;;;;;;;17.19;50.35;99425.25;4138890;28;20778;-71
2022/05/15 05:02:03;;;;;;;8.17;3.77;;;;;;;17.76;48.73;99412.06;4140832;28;20233;-71
2022/05/15 05:04:05;;;;;;;5.63;4.10;;;;;;;17.23;50.31;99420.31;4137529;28;20237;-71
2022/05/15 05:06:07;;;;;;;9.17;5.20;;;;;;;17.25;49.83;99437.06;4139675;28;20243;-72
2022/05/15 05:08:10;;;;;;;9.90;4.20;;;;;;;17.62;49.96;99379.06;4139500;28;20236;-72
2022/05/15 05:10:15;;;;;;;9.67;4.40;;;;;;;17.62;49.89;99414.00;4141671;28;20287;-71
2022/05/15 05:12:17;;;;;;;8.93;4.90;;;;;;;17.58;49.80;99439.66;4140519;28;20233;-71
2022/05/15 05:14:19;;;;;;;10.13;4.33;;;;;;;18.06;49.29;99381.09;4140472;28;20229;-71
2022/05/15 05:16:20;;;;;;;7.27;4.83;;;;;;;17.59;50.08;99405.53;4137331;28;20279;-71
2022/05/15 05:18:22;;;;;;;5.93;4.47;;;;;;;17.99;49.41;99433.06;4142242;28;20279;-71
2022/05/15 05:20:24;;;;;;;7.90;4.53;;;;;;;17.96;49.62;99421.91;4138512;28;20240;-71
2022/05/15 05:22:26;;;;;;;7.43;5.00;;;;;;;17.82;50.30;99405.84;4141917;28;20226;-72
2022/05/15 05:24:28;;;;;;;7.33;4.37;;;;;;;17.95;49.45;99378.06;4142815;28;20233;-71
2022/05/15 05:26:30;;;;;;;8.00;4.30;;;;;;;17.55;49.82;99447.31;4148209;28;20233;-72
2022/05/15 05:28:32;;;;;;;6.20;4.23;;;;;;;17.63;50.03;99428.25;4147002;28;20291;-71
2022/05/15 05:30:34;;;;;;;7.17;4.43;;;;;;;17.95;49.47;99428.31;4145096;28;20297;-72
2022/05/15 05:32:36;;;;;;;9.00;4.30;;;;;;;17.81;49.68;99417.63;4158341;28;20233;-72
2022/05/15 05:34:38;;;;;;;5.67;3.93;;;;;;;17.85;49.88;99408.09;4145962;28;20257;-72
2022/05/15 05:36:40;;;;;;;9.17;4.43;;;;;;;17.47;50.39;99475.25;4147500;28;20702;-72
2022/05/15 05:38:41;;;;;;;8.70;5.30;;;;;;;18.31;49.39;99381.16;4141747;28;20293;-72
2022/05/15 05:40:43;;;;;;;7.23;4.30;;;;;;;18.29;49.21;99412.81;4146327;28;20241;-72
2022/05/15 05:42:45;;;;;;;7.60;4.30;;;;;;;17.65;49.75;99507.69;4138895;28;21089;-72
2022/05/15 05:44:47;;;;;;;6.37;4.30;;;;;;;18.64;49.04;99420.41;4136883;28;21025;-71
2022/05/15 05:46:48;;;;;;;7.67;4.27;;;;;;;19.00;48.46;99459.28;4139870;28;20279;-71
2022/05/15 05:48:50;;;;;;;7.07;4.27;;;;;;;18.71;48.59;99448.97;4141131;28;20245;-71
2022/05/15 05:50:52;;;;;;;7.13;4.17;;;;;;;18.04;49.79;99518.50;4142057;28;20414;-71
2022/05/15 05:52:54;;;;;;;7.07;4.50;;;;;;;19.13;48.38;99418.72;4135725;28;20649;-71
2022/05/15 05:54:56;;;;;;;5.97;4.50;;;;;;;19.46;47.58;99450.72;4142514;28;20236;-71
2022/05/15 05:56:58;;;;;;;5.83;3.60;;;;;;;19.40;47.65;99466.97;4141750;28;20236;-71
2022/05/15 05:59:00;;;;;;;9.43;4.30;;;;;;;19.19;48.47;99465.53;4139509;28;20643;-72
2022/05/15 06:01:02;;;;;;;8.47;4.07;;;;;;;19.08;48.71;99454.47;4141168;28;20233;-71
2022/05/15 06:05:25;;;;;;;5.90;4.00;;;;;;;19.11;48.31;99462.06;4137707;28;20251;-71
2022/05/15 06:07:28;;;;;;;7.40;4.20;;;;;;;19.10;48.48;99467.69;4136464;28;20324;-71
2022/05/15 06:09:30;;;;;;;5.27;4.30;;;;;;;19.51;47.90;99506.69;4141127;28;20287;-71
2022/05/15 06:11:33;;;;;;;8.97;4.33;;;;;;;19.00;48.32;99538.25;4142424;28;20240;-71
2022/05/15 06:13:35;;;;;;;5.40;3.90;;;;;;;19.19;48.87;99487.91;4140486;28;20237;-71
2022/05/15 06:15:37;;;;;;;5.73;3.80;;;;;;;19.07;48.51;99525.56;4136450;28;20839;-71
2022/05/15 06:17:39;;;;;;;4.50;3.73;;;;;;;19.83;47.69;99475.00;4139197;28;20229;-71
2022/05/15 06:19:41;;;;;;;8.10;4.00;;;;;;;19.79;48.37;99481.06;4141759;28;20229;-71
2022/05/15 06:21:44;;;;;;;6.47;3.63;;;;;;;19.79;47.73;99473.81;4132620;28;20237;-71
2022/05/15 06:23:45;;;;;;;7.57;3.63;;;;;;;20.05;46.90;99467.25;4141052;28;20772;-71
2022/05/15 06:25:47;;;;;;;8.47;4.03;;;;;;;20.25;46.81;99512.84;4139726;28;20267;-71
2022/05/15 06:27:49;;;;;;;6.40;3.53;;;;;;;19.86;46.94;99531.22;4141737;28;20249;-71
2022/05/15 06:29:51;;;;;;;7.13;3.60;;;;;;;19.91;46.90;99518.91;4135938;28;20586;-71
2022/05/15 06:31:52;;;;;;;7.43;3.53;;;;;;;20.24;47.19;99500.41;4137592;28;20267;-71
2022/05/15 06:33:54;;;;;;;4.57;3.60;;;;;;;19.75;49.31;99523.03;4137417;28;20241;-71
2022/05/15 06:35:56;;;;;;;7.47;3.33;;;;;;;19.73;47.09;99534.06;4139773;28;20745;-71
2022/05/15 06:38:05;;;;;;;5.77;3.43;;;;;;;20.84;45.70;99479.81;4138300;28;20780;-72
2022/05/15 06:40:10;;;;;;;5.40;3.27;;;;;;;20.10;47.41;99542.13;4137414;28;20263;-71
2022/05/15 06:42:12;;;;;;;6.50;3.50;;;;;;;20.70;46.92;99511.63;4140430;28;20314;-71
2022/05/15 06:44:13;;;;;;;5.30;3.30;;;;;;;20.77;47.27;99523.16;4140752;28;20264;-72
2022/05/15 06:46:15;;;;;;;6.03;3.23;;;;;;;20.86;46.47;99520.09;4136802;28;20229;-71
2022/05/15 06:48:17;;;;;;;4.97;3.23;;;;;;;20.65;46.82;99549.31;4141343;28;20229;-72
2022/05/15 06:50:19;;;;;;;5.13;3.10;;;;;;;20.85;45.65;99530.06;4137203;28;20228;-72
2022/05/15 06:52:22;;;;;;;6.97;3.40;;;;;;;21.09;45.59;99522.88;4140391;28;20312;-72
2022/05/15 06:54:24;;;;;;;5.40;3.10;;;;;;;21.20;46.43;99512.28;4141690;28;20225;-72
2022/05/15 06:58:46;;;;;;;5.00;3.30;;;;;;;21.17;45.65;99516.28;4141083;28;20229;-71
2022/05/15 07:00:48;;;;;;;4.13;2.77;;;;;;;20.35;45.88;99573.63;4135670;28;20830;-72
2022/05/15 07:02:50;;;;;;;5.50;3.03;;;;;;;21.02;45.26;99562.69;4137892;28;20221;-70
2022/05/15 07:04:52;;;;;;;4.17;3.00;;;;;;;21.28;45.44;99531.69;4141921;28;20233;-71
2022/05/15 07:06:53;;;;;;;6.67;3.03;;;;;;;21.23;44.87;99558.59;4134510;28;20237;-71
2022/05/15 07:08:55;;;;;;;7.50;3.30;;;;;;;21.50;45.27;99525.69;4142893;28;20236;-71
2022/05/15 07:10:57;;;;;;;6.03;3.10;;;;;;;20.79;45.66;99563.44;4134918;28;20284;-71
2022/05/15 07:12:58;;;;;;;7.33;3.17;;;;;;;21.42;44.78;99534.16;4142559;28;20252;-71
2022/05/15 07:15:03;;;;;;;5.90;2.50;;;;;;;21.68;44.97;99527.44;4138803;28;20331;-71
2022/05/15 07:17:05;;;;;;;4.70;3.00;;;;;;;20.96;45.29;99577.13;4140687;28;20290;-72
2022/05/15 07:19:13;;;;;;;5.90;3.00;;;;;;;21.66;45.01;99551.19;4142762;28;20224;-71
2022/05/15 07:21:14;;;;;;;5.13;3.27;;;;;;;21.18;45.30;99553.06;4143453;28;20244;-71
2022/05/15 07:23:18;;;;;;;5.80;2.87;;;;;;;21.81;44.26;99520.94;4143053;28;20299;-71
2022/05/15 07:25:20;;;;;;;5.07;2.80;;;;;;;21.69;44.74;99551.53;4144816;28;20241;-71
2022/05/15 07:27:22;;;;;;;4.47;2.80;;;;;;;21.29;45.32;99576.59;4143689;28;20295;-72
2022/05/15 07:29:24;;;;;;;6.27;2.77;;;;;;;22.01;44.60;99536.78;4139377;28;20298;-72
2022/05/15 07:31:26;;;;;;;7.60;3.07;;;;;;;21.66;44.57;99572.84;4137944;28;20615;-72
2022/05/15 07:33:28;;;;;;;4.33;2.60;;;;;;;22.31;45.00;99550.13;4136189;28;20280;-72
2022/05/15 07:35:30;;;;;;;3.27;2.57;;;;;;;21.98;45.12;99535.38;4137374;28;20272;-72
2022/05/15 07:37:31;;;;;;;3.47;2.50;;;;;;;21.80;44.92;99578.81;4134187;28;20582;-71
2022/05/15 07:39:33;;;;;;;7.97;2.90;;;;;;;21.66;45.07;99576.41;4138584;28;20303;-71
2022/05/15 07:41:35;;;;;;;5.50;2.67;;;;;;;22.21;45.52;99555.31;4141365;28;20241;-71
2022/05/15 07:43:37;;;;;;;5.72;2.83;;;;;;;21.89;45.14;99563.88;4142724;28;20311;-71
2022/05/15 07:45:39;;;;;;;4.23;2.70;;;;;;;22.23;44.44;99553.19;4143635;28;20236;-72
2022/05/15 07:47:41;;;;;;;7.13;3.15;;;;;;;22.24;45.27;99531.28;4142496;28;20287;-71
2022/05/15 07:49:43;;;;;;;8.83;3.27;;;;;;;22.00;45.11;99541.38;4144635;28;20245;-72
2022/05/15 07:51:45;;;;;;;8.60;3.20;;;;;;;22.25;45.36;99537.50;4134843;28;20292;-72
2022/05/15 07:53:46;;;;;;;5.07;2.63;;;;;;;22.32;44.63;99557.22;4137186;28;20272;-71
2022/05/15 07:55:48;;;;;;;5.07;2.22;;;;;;;22.02;44.07;99557.38;4142998;28;23071;-72
2022/05/15 07:57:50;;;;;;;5.30;2.58;;;;;;;22.15;44.24;99562.50;4141219;28;20270;-72
2022/05/15 07:59:53;;;;;;;4.25;2.88;;;;;;;22.44;44.62;99535.47;4144351;28;20239;-76
2022/05/15 08:01:55;;;;;;;7.40;3.03;;;;;;;22.61;44.01;99513.84;4139520;28;20225;-69
2022/05/15 08:03:57;;;;;;;4.38;2.65;;;;;;;22.30;44.24;99570.13;4138796;28;20241;-72
2022/05/15 08:08:20;;;;;;;5.10;2.80;;;;;;;22.62;44.73;99547.97;4137530;28;20237;-72
2022/05/15 08:10:21;;;;;;;5.50;3.03;;;;;;;22.63;44.32;99549.63;4137329;28;20284;-72
2022/05/15 08:12:23;;;;;;;4.22;2.70;;;;;;;23.31;43.68;99536.09;4139380;28;20291;-72
2022/05/15 08:14:25;;;;;;;5.57;2.33;;;;;;;22.83;44.67;99541.84;4143059;28;20941;-72
2022/05/15 08:16:28;;;;;;;5.22;2.60;;;;;;;22.97;44.67;99546.97;4140642;28;20245;-72
2022/05/15 08:25:31;;;;;;;3.85;2.50;;;;;;;23.74;43.48;99527.25;4137422;28;20229;-72
2022/05/15 08:27:33;;;;;;;5.13;2.50;;;;;;;23.08;43.54;99547.94;4135660;28;20315;-71
2022/05/15 08:29:34;;;;;;;4.72;2.38;;;;;;;23.66;43.15;99543.97;4138347;28;20240;-71
2022/05/15 08:31:36;;;;;;;4.78;2.92;;;;;;;23.50;43.86;99548.34;4136145;28;20226;-71
2022/05/15 08:33:39;;;;;;;7.15;2.88;;;;;;;23.29;43.50;99549.91;4141172;28;20234;-71
2022/05/15 08:35:41;;;;;;;6.95;2.60;;;;;;;23.75;43.78;99549.78;4143216;28;20244;-72
2022/05/15 08:37:42;;;;;;;5.28;2.60;;;;;;;23.56;43.95;99531.06;4133931;28;20680;-71
2022/05/15 08:39:44;;;;;;;6.18;2.20;;;;;;;23.91;43.88;99521.75;4132353;28;20238;-71
2022/05/15 08:41:49;;;;;;;3.85;2.60;;;;;;;24.36;43.07;99527.16;4136705;28;20250;-72
2022/05/15 08:44:10;;;;;;;4.93;2.42;;;;;;;23.81;42.83;99542.53;4139307;28;20255;-72
2022/05/15 08:46:36;;;;;;;5.15;2.70;;;;;;;24.06;42.74;99539.31;4139460;28;20240;-72
2022/05/15 08:48:38;;;;;;;5.68;2.42;;;;;;;24.02;42.08;99530.00;4142556;28;20271;-72
2022/05/15 08:50:48;;;;;;;4.68;2.40;;;;;;;24.10;42.22;99541.25;4147569;28;20233;-72
2022/05/15 08:53:00;;;;;;;3.78;2.30;;;;;;;24.20;43.10;99551.44;4145868;28;20229;-70
2022/05/15 08:55:06;;;;;;;2.83;2.35;;;;;;;24.42;43.08;99545.16;4144961;28;20236;-72
2022/05/15 08:57:16;;;;;;;3.30;2.50;;;;;;;24.50;42.97;99528.38;4137350;28;20308;-72
2022/05/15 08:59:32;;;;;;;4.60;2.50;;;;;;;24.43;42.68;99554.94;4141307;28;20237;-72
2022/05/15 09:01:33;;;;;;;5.45;2.33;;;;;;;24.58;41.71;99536.09;4128025;28;20304;-72
2022/05/15 09:03:38;;;;;;;4.20;2.15;;;;;;;24.36;41.51;99546.16;4144137;28;20233;-72
2022/05/15 09:05:51;;;;;;;4.30;2.35;;;;;;;24.19;41.76;99565.28;4139953;28;20237;-72
2022/05/15 09:08:06;;;;;;;5.43;2.38;;;;;;;24.40;41.93;99544.59;4140491;28;20240;-73
2022/05/15 09:10:20;;;;;;;4.93;2.30;;;;;;;24.77;41.75;99533.03;4138572;28;20249;-72
2022/05/15 09:12:33;;;;;;;6.03;2.25;;;;;;;25.50;41.35;99529.75;4138925;28;20229;-72
2022/05/15 09:14:38;;;;;;;7.35;2.47;;;;;;;25.11;40.97;99549.88;4133511;28;20250;-72
2022/05/15 09:16:52;;;;;;;3.67;2.30;;;;;;;25.41;40.89;99532.16;4134393;28;20233;-71
2022/05/15 09:19:01;;;;;;;5.63;1.85;;;;;;;25.42;41.69;99536.50;4138592;28;20694;-72
2022/05/15 09:21:14;;;;;;;4.88;2.50;;;;;;;25.50;40.85;99529.75;4139256;28;20240;-72
2022/05/15 09:23:49;;;;;;;5.40;2.20;;;;;;;25.22;41.83;99529.81;4138751;28;20232;-72
2022/05/15 09:25:55;;;;;;;4.18;2.38;;;;;;;25.75;41.85;99526.34;4137218;28;20240;-74
2022/05/15 09:28:08;;;;;;;3.78;2.28;;;;;;;25.67;40.27;99535.81;4139734;28;20241;-71
2022/05/15 09:30:11;;;;;;;4.45;2.38;;;;;;;25.47;40.63;99541.97;4142811;28;20298;-71
2022/05/15 09:32:45;;;;;;;3.30;2.13;;;;;;;25.32;41.35;99544.56;4139571;28;20233;-72
2022/05/15 09:34:47;;;;;;;4.80;1.98;;;;;;;25.82;41.00;99531.53;4142195;28;20236;-73
2022/05/15 09:36:50;;;;;;;2.97;1.88;;;;;;;25.85;39.93;99531.00;4138462;28;20291;-71
2022/05/15 09:39:27;;;;;;;6.20;2.25;;;;;;;25.95;40.13;99539.25;4138156;28;20728;-70
2022/05/15 09:43:52;;;;;;;7.28;2.50;;;;;;;26.06;39.30;99535.44;4133272;28;20234;-71
2022/05/15 09:45:56;;;;;;;7.53;2.47;;;;;;;25.81;39.60;99527.97;4137632;28;20768;-72
2022/05/15 09:47:58;;;;;;;5.82;2.35;;;;;;;26.39;40.26;99532.56;4123686;28;20329;-73
2022/05/15 09:50:00;;;;;;;6.82;2.30;;;;;;;26.21;39.49;99523.78;4125498;28;20649;-72
2022/05/15 09:52:11;;;;;;;3.53;2.40;;;;;;;26.40;39.92;99512.38;4127388;28;20261;-72
2022/05/15 09:54:34;;;;;;;4.57;2.22;;;;;;;25.77;39.70;99518.72;4132267;28;20578;-71
2022/05/15 09:56:36;;;;;;;3.05;2.08;;;;;;;25.71;39.49;99515.16;4131642;28;20283;-71
2022/05/15 09:58:54;;;;;;;6.05;2.03;;;;;;;25.63;40.45;99512.09;4134715;28;20229;-71
2022/05/15 10:01:11;;;;;;;4.80;1.98;;;;;;;26.10;39.26;99506.59;4123885;28;20723;-72